Time;durP1;ratioP1;P1;durP2;ratioP2;P2;SDS_P1;SDS_P2;PMS_P1;PMS_P2;Temp;Humidity;BMP_temperature;BMP_pressure;BME280_temperature;BME280_humidity;BME280_pressure;Samples;Min_cycle;Max_cycle;Signal;HPM_P1;HPM_P2
2023/03/05 00:01:50;;;;;;;5.37;2.17;;;;;;;1.92;100.00;100685.75;5047820;28;20208;-80
2023/03/05 00:04:16;;;;;;;5.03;1.73;;;;;;;1.90;100.00;100681.41;5037348;28;20230;-81
2023/03/05 00:06:43;;;;;;;7.13;1.90;;;;;;;1.92;99.86;100682.28;5038088;28;20783;-81
2023/03/05 00:09:09;;;;;;;9.27;2.07;;;;;;;1.88;100.00;100699.38;5041051;28;20228;-81
2023/03/05 00:11:36;;;;;;;5.57;1.90;;;;;;;1.94;99.68;100685.75;5041738;28;20260;-81
2023/03/05 00:14:04;;;;;;;5.47;1.77;;;;;;;2.08;99.27;100702.38;5041015;28;20206;-80
2023/03/05 00:16:31;;;;;;;6.97;2.20;;;;;;;1.99;99.46;100705.63;5041142;28;20237;-81
2023/03/05 00:19:00;;;;;;;9.27;2.37;;;;;;;1.82;99.94;100699.25;5040555;28;20277;-82
2023/03/05 00:21:28;;;;;;;5.87;2.10;;;;;;;1.82;100.00;100691.53;5041389;28;20207;-80
2023/03/05 00:23:57;;;;;;;3.97;2.03;;;;;;;1.83;100.00;100680.41;5041031;28;20210;-81
2023/03/05 00:26:25;;;;;;;6.77;1.90;;;;;;;1.82;99.64;100680.38;5044767;28;20763;-82
2023/03/05 00:28:52;;;;;;;7.87;2.23;;;;;;;2.00;99.31;100696.19;5060677;28;20664;-82
2023/03/05 00:31:20;;;;;;;5.20;1.57;;;;;;;2.12;98.80;100704.19;5061626;28;20750;-79
2023/03/05 00:33:53;;;;;;;3.80;2.20;;;;;;;1.92;98.02;100728.63;5060702;28;20198;-81
2023/03/05 00:36:21;;;;;;;3.43;1.73;;;;;;;1.86;97.59;100736.22;5060542;28;20211;-80
2023/03/05 00:38:47;;;;;;;5.27;1.93;;;;;;;1.85;98.22;100725.06;5052737;28;20223;-81
2023/03/05 00:41:13;;;;;;;5.97;1.93;;;;;;;1.76;98.43;100714.56;5060960;28;20203;-79
2023/03/05 00:43:40;;;;;;;4.10;1.90;;;;;;;1.74;98.29;100704.22;5060348;28;20204;-80
2023/03/05 00:46:06;;;;;;;4.80;2.43;;;;;;;1.83;98.78;100707.88;5060115;28;20230;-80
2023/03/05 00:48:33;;;;;;;8.30;2.10;;;;;;;1.89;98.56;100708.84;5061269;28;20230;-81
2023/03/05 00:50:59;;;;;;;5.23;2.10;;;;;;;1.77;98.53;100709.47;5060954;28;20202;-81
2023/03/05 00:53:27;;;;;;;5.67;2.07;;;;;;;1.79;98.51;100692.34;5060473;28;20206;-79
2023/03/05 00:55:53;;;;;;;6.87;2.03;;;;;;;1.82;98.59;100688.97;5060293;28;20229;-80
2023/03/05 00:58:19;;;;;;;5.53;2.00;;;;;;;1.78;98.76;100679.44;5060106;28;20226;-81
2023/03/05 01:00:49;;;;;;;7.00;1.97;;;;;;;1.89;98.82;100682.25;5060540;28;20634;-81
2023/03/05 01:03:15;;;;;;;8.33;2.57;;;;;;;2.03;98.31;100687.69;5060346;28;20217;-79
2023/03/05 01:05:42;;;;;;;4.37;1.70;;;;;;;1.87;97.71;100691.66;5059960;28;20767;-81
2023/03/05 01:08:09;;;;;;;5.70;2.07;;;;;;;1.79;97.85;100702.63;5057489;28;20608;-78
2023/03/05 01:10:37;;;;;;;7.87;2.00;;;;;;;1.71;98.03;100687.88;5060482;28;20215;-81
2023/03/05 01:13:03;;;;;;;8.87;2.30;;;;;;;1.72;97.82;100681.88;5060039;28;20687;-80
2023/03/05 01:15:29;;;;;;;4.40;1.70;;;;;;;1.68;98.09;100682.66;5059796;28;20252;-81
2023/03/05 01:17:56;;;;;;;7.87;2.33;;;;;;;1.62;98.23;100675.69;5058882;28;20227;-81
2023/03/05 01:20:22;;;;;;;5.37;2.53;;;;;;;1.61;98.17;100663.66;5059360;28;20233;-81
2023/03/05 01:22:49;;;;;;;6.60;1.90;;;;;;;1.71;98.70;100654.44;5060044;28;20269;-80
2023/03/05 01:25:16;;;;;;;6.03;2.13;;;;;;;1.75;98.52;100656.22;5058833;28;20208;-80
2023/03/05 01:27:44;;;;;;;3.67;1.53;;;;;;;1.70;98.54;100652.69;5054012;28;20229;-80
2023/03/05 01:30:13;;;;;;;5.83;1.93;;;;;;;1.80;98.24;100652.03;5054264;28;20633;-80
2023/03/05 01:32:40;;;;;;;6.00;2.03;;;;;;;1.86;98.25;100648.72;5054068;28;20210;-80
2023/03/05 01:35:08;;;;;;;5.17;2.10;;;;;;;1.71;98.26;100649.28;5053972;28;20208;-79
2023/03/05 01:37:34;;;;;;;5.37;2.33;;;;;;;1.62;99.25;100631.06;5053936;28;20223;-79
2023/03/05 01:40:01;;;;;;;11.70;2.73;;;;;;;1.67;99.46;100614.03;5048044;28;20264;-79
2023/03/05 01:42:27;;;;;;;7.63;2.23;;;;;;;1.64;99.55;100603.69;5054342;28;20217;-79
2023/03/05 01:45:04;;;;;;;6.90;2.30;;;;;;;1.65;98.94;100595.13;5045546;28;20206;-79
2023/03/05 01:47:30;;;;;;;7.13;2.93;;;;;;;1.64;99.02;100601.97;5054104;28;20232;-79
2023/03/05 01:49:57;;;;;;;9.53;2.73;;;;;;;1.79;98.83;100591.13;5053969;28;20205;-80
2023/03/05 01:52:25;;;;;;;5.90;2.17;;;;;;;1.79;98.09;100602.28;5054119;28;20263;-80
2023/03/05 01:54:54;;;;;;;5.43;2.13;;;;;;;1.84;98.25;100610.06;5054160;28;20630;-81
2023/03/05 01:57:24;;;;;;;5.50;2.17;;;;;;;1.89;97.87;100620.47;5054046;28;20198;-80
2023/03/05 01:59:54;;;;;;;10.97;3.43;;;;;;;1.84;97.52;100630.66;5054113;28;20210;-80
2023/03/05 02:02:22;;;;;;;5.67;2.23;;;;;;;1.84;97.82;100632.38;5054068;28;20639;-80
2023/03/05 02:04:53;;;;;;;7.10;2.57;;;;;;;1.80;96.94;100623.72;5054057;28;20203;-80
2023/03/05 02:07:19;;;;;;;7.67;3.30;;;;;;;1.77;97.51;100624.53;5053787;28;20228;-80
2023/03/05 02:09:46;;;;;;;14.67;3.40;;;;;;;1.82;97.27;100621.19;5054092;28;20213;-80
2023/03/05 02:12:13;;;;;;;5.63;2.90;;;;;;;1.90;97.43;100625.66;5054385;28;20203;-78
2023/03/05 02:14:42;;;;;;;11.03;4.27;;;;;;;1.88;96.78;100637.59;5046329;28;20264;-81
2023/03/05 02:17:09;;;;;;;6.60;2.87;;;;;;;1.91;97.31;100636.81;5053706;28;20668;-79
2023/03/05 02:19:48;;;;;;;8.80;3.40;;;;;;;1.97;96.36;100637.78;5054204;28;20582;-80
2023/03/05 02:22:16;;;;;;;8.77;3.40;;;;;;;1.95;96.01;100641.19;5054531;28;20202;-79
2023/03/05 02:24:43;;;;;;;8.93;3.33;;;;;;;1.98;96.37;100646.38;5053807;28;20238;-81
2023/03/05 02:27:09;;;;;;;8.10;3.20;;;;;;;1.92;96.30;100642.00;5054267;28;20225;-80
2023/03/05 02:29:38;;;;;;;6.47;3.03;;;;;;;1.99;96.76;100638.69;5054427;28;20202;-80
2023/03/05 02:32:05;;;;;;;6.20;2.90;;;;;;;1.95;96.34;100631.75;5053987;28;20203;-80
2023/03/05 02:34:31;;;;;;;8.77;3.07;;;;;;;1.96;95.73;100636.06;5054047;28;20214;-80
2023/03/05 02:36:58;;;;;;;7.20;2.77;;;;;;;1.99;96.60;100642.97;5054396;28;20556;-80
2023/03/05 02:39:25;;;;;;;8.50;2.63;;;;;;;1.92;96.77;100631.69;5053688;28;20230;-80
2023/03/05 02:41:52;;;;;;;9.00;3.07;;;;;;;1.85;96.47;100621.25;5053529;28;20211;-80
2023/03/05 02:44:18;;;;;;;8.40;2.90;;;;;;;1.93;97.17;100619.69;5046141;28;20207;-80
2023/03/05 02:46:44;;;;;;;5.17;2.60;;;;;;;1.80;97.37;100605.69;5053218;28;20276;-80
2023/03/05 02:49:11;;;;;;;7.67;2.50;;;;;;;1.84;97.64;100597.19;5053843;28;20234;-79
2023/03/05 02:51:37;;;;;;;4.73;2.73;;;;;;;1.89;97.36;100585.31;5054425;28;20618;-79
2023/03/05 02:54:04;;;;;;;6.13;2.20;;;;;;;2.03;96.86;100582.97;5053887;28;20224;-80
2023/03/05 02:56:31;;;;;;;10.07;2.63;;;;;;;1.96;96.82;100592.31;5050323;28;20791;-81
2023/03/05 02:58:57;;;;;;;3.27;2.13;;;;;;;2.07;97.35;100581.34;5053903;28;20786;-79
2023/03/05 03:01:26;;;;;;;5.23;2.67;;;;;;;2.04;97.84;100563.25;5053949;28;20210;-80
2023/03/05 03:03:53;;;;;;;8.67;3.13;;;;;;;1.86;100.00;100536.31;5053798;28;20290;-81
2023/03/05 03:06:19;;;;;;;5.13;2.57;;;;;;;1.79;100.00;100519.06;5053190;28;20279;-79
2023/03/05 03:08:45;;;;;;;6.90;2.50;;;;;;;1.84;100.00;100504.53;5053945;28;20221;-80
2023/03/05 03:11:13;;;;;;;4.47;2.50;;;;;;;1.92;99.80;100515.88;5054108;28;20202;-80
2023/03/05 03:13:41;;;;;;;3.97;1.93;;;;;;;1.94;99.58;100511.63;5053716;28;20205;-78
2023/03/05 03:16:12;;;;;;;3.27;1.87;;;;;;;1.94;98.87;100514.19;5050783;28;20203;-80
2023/03/05 03:18:39;;;;;;;3.63;2.20;;;;;;;1.89;99.25;100512.38;5053669;28;20264;-79
2023/03/05 03:21:06;;;;;;;4.33;2.93;;;;;;;1.88;99.29;100508.91;5053816;28;20237;-79
2023/03/05 03:23:33;;;;;;;4.90;2.23;;;;;;;1.92;99.36;100507.25;5053949;28;20225;-80
2023/03/05 03:25:59;;;;;;;6.23;2.50;;;;;;;1.98;99.16;100510.81;5046873;28;20199;-80
2023/03/05 03:28:26;;;;;;;3.53;2.33;;;;;;;1.87;99.40;100508.91;5053298;28;20689;-79
2023/03/05 03:30:53;;;;;;;6.47;2.63;;;;;;;1.91;99.69;100493.53;5054105;28;20206;-79
2023/03/05 03:33:20;;;;;;;5.90;2.87;;;;;;;1.92;100.00;100478.94;5054231;28;20255;-79
2023/03/05 03:35:46;;;;;;;7.10;2.93;;;;;;;1.79;100.00;100455.59;5053503;28;20210;-79
2023/03/05 03:38:13;;;;;;;6.67;2.20;;;;;;;1.90;100.00;100419.75;5053645;28;20231;-79
2023/03/05 03:40:40;;;;;;;4.77;2.87;;;;;;;1.68;100.00;100394.50;5053626;28;20209;-80
2023/03/05 03:43:07;;;;;;;8.63;2.90;;;;;;;1.73;100.00;100354.28;5053259;28;20216;-79
2023/03/05 03:45:35;;;;;;;6.07;2.63;;;;;;;1.81;100.00;100337.25;5050072;28;20548;-79
2023/03/05 03:48:02;;;;;;;7.30;2.90;;;;;;;1.82;100.00;100330.38;5053071;28;20283;-79
2023/03/05 03:50:29;;;;;;;5.57;3.40;;;;;;;1.74;100.00;100313.09;5053569;28;20240;-80
2023/03/05 03:52:55;;;;;;;5.80;3.17;;;;;;;1.78;100.00;100307.19;5053244;28;20268;-78
2023/03/05 03:55:21;;;;;;;6.57;3.00;;;;;;;1.63;100.00;100291.50;5052871;28;20213;-79
2023/03/05 03:57:48;;;;;;;4.73;3.50;;;;;;;1.46;100.00;100275.81;5052959;28;20253;-80
2023/03/05 04:00:15;;;;;;;7.77;4.17;;;;;;;1.39;100.00;100266.28;5052988;28;20272;-80
2023/03/05 04:02:41;;;;;;;9.20;4.03;;;;;;;1.45;100.00;100247.50;5053433;28;20205;-79
2023/03/05 04:05:10;;;;;;;7.90;3.67;;;;;;;1.43;100.00;100251.75;5053415;28;20214;-78
2023/03/05 04:07:36;;;;;;;5.67;3.37;;;;;;;1.58;100.00;100251.97;5053693;28;20371;-80
2023/03/05 04:10:03;;;;;;;4.50;3.30;;;;;;;1.54;100.00;100274.22;5052627;28;20209;-79
2023/03/05 04:12:29;;;;;;;4.33;2.77;;;;;;;1.62;100.00;100296.63;5053276;28;20740;-80
2023/03/05 04:14:56;;;;;;;10.90;2.97;;;;;;;1.77;100.00;100302.88;5051207;28;20206;-81
2023/03/05 04:17:22;;;;;;;6.07;2.97;;;;;;;1.74;100.00;100307.09;5052903;28;20198;-81
2023/03/05 04:19:48;;;;;;;3.33;2.60;;;;;;;1.78;100.00;100317.47;5053714;28;20269;-80
2023/03/05 04:22:17;;;;;;;5.73;2.53;;;;;;;1.76;100.00;100319.16;5053334;28;20232;-81
2023/03/05 04:24:44;;;;;;;3.33;2.10;;;;;;;1.81;100.00;100328.66;5053212;28;20202;-79
2023/03/05 04:27:11;;;;;;;5.40;2.33;;;;;;;1.85;100.00;100348.44;5053296;28;20635;-80
2023/03/05 04:29:37;;;;;;;3.20;2.17;;;;;;;1.88;100.00;100356.19;5054543;28;20602;-82
2023/03/05 04:32:05;;;;;;;4.83;2.40;;;;;;;1.84;100.00;100360.44;5056543;28;20210;-82
2023/03/05 04:34:31;;;;;;;3.40;2.20;;;;;;;1.79;100.00;100364.66;5055614;28;20248;-80
2023/03/05 04:36:58;;;;;;;6.50;2.90;;;;;;;1.78;100.00;100366.38;5056319;28;20637;-82
2023/03/05 04:39:25;;;;;;;4.93;2.47;;;;;;;1.71;100.00;100369.69;5056346;28;20226;-82
2023/03/05 04:41:52;;;;;;;3.87;2.87;;;;;;;1.83;100.00;100374.16;5056306;28;20208;-82
2023/03/05 04:44:18;;;;;;;3.97;2.30;;;;;;;1.86;100.00;100378.47;5054335;28;20227;-81
2023/03/05 04:46:44;;;;;;;3.53;2.30;;;;;;;1.75;100.00;100380.88;5056011;28;20230;-82
2023/03/05 04:49:11;;;;;;;4.13;2.30;;;;;;;1.77;100.00;100379.22;5055710;28;20301;-81
2023/03/05 04:51:37;;;;;;;4.50;2.17;;;;;;;1.75;100.00;100388.63;5056496;28;20422;-81
2023/03/05 04:54:04;;;;;;;2.60;2.30;;;;;;;1.78;100.00;100383.50;5058575;28;20201;-82
2023/03/05 04:56:31;;;;;;;4.97;2.07;;;;;;;1.76;100.00;100395.47;5060233;28;20213;-82
2023/03/05 04:58:58;;;;;;;3.87;1.77;;;;;;;1.79;100.00;100408.41;5060428;28;20230;-83
2023/03/05 05:01:24;;;;;;;8.07;2.03;;;;;;;1.82;100.00;100416.16;5052122;28;20202;-82
2023/03/05 05:03:51;;;;;;;3.20;1.77;;;;;;;1.73;100.00;100422.03;5060042;28;20253;-82
2023/03/05 05:06:17;;;;;;;4.10;2.07;;;;;;;1.76;100.00;100413.50;5060450;28;20244;-81
2023/03/05 05:08:44;;;;;;;4.60;2.37;;;;;;;1.78;100.00;100416.94;5060495;28;20221;-82
2023/03/05 05:11:14;;;;;;;2.80;2.07;;;;;;;1.79;100.00;100416.13;5060133;28;20217;-83
2023/03/05 05:13:41;;;;;;;3.20;2.30;;;;;;;1.78;100.00;100422.09;5060419;28;20253;-83
2023/03/05 05:16:08;;;;;;;2.73;2.40;;;;;;;1.72;100.00;100415.13;5057873;28;20209;-80
2023/03/05 05:18:35;;;;;;;5.43;2.80;;;;;;;1.73;100.00;100410.88;5056557;28;20893;-79
2023/03/05 05:21:01;;;;;;;6.20;2.70;;;;;;;1.64;100.00;100401.28;5056663;28;20206;-79
2023/03/05 05:23:28;;;;;;;3.87;2.17;;;;;;;1.71;100.00;100392.84;5057071;28;20209;-80
2023/03/05 05:25:58;;;;;;;5.83;2.90;;;;;;;1.71;100.00;100392.84;5056823;28;20259;-80
2023/03/05 05:28:24;;;;;;;8.20;2.50;;;;;;;1.71;100.00;100397.13;5056485;28;20649;-80
2023/03/05 05:30:52;;;;;;;4.47;2.40;;;;;;;1.65;100.00;100394.44;5052350;28;20212;-79
2023/03/05 05:33:19;;;;;;;3.83;2.57;;;;;;;1.62;100.00;100389.25;5054166;28;20209;-79
2023/03/05 05:35:45;;;;;;;3.40;2.13;;;;;;;1.70;100.00;100385.09;5057028;28;20238;-78
2023/03/05 05:38:12;;;;;;;4.57;2.67;;;;;;;1.69;100.00;100383.38;5056126;28;20267;-81
2023/03/05 05:40:38;;;;;;;3.10;2.60;;;;;;;1.66;100.00;100398.75;5056645;28;20205;-81
2023/03/05 05:43:05;;;;;;;2.73;2.17;;;;;;;1.74;100.00;100400.59;5056485;28;20210;-80
2023/03/05 05:45:31;;;;;;;5.57;2.57;;;;;;;1.72;100.00;100406.56;5056580;28;20215;-80
2023/03/05 05:47:59;;;;;;;4.90;2.33;;;;;;;1.81;100.00;100418.72;5056379;28;20297;-81
2023/03/05 05:50:26;;;;;;;5.53;2.40;;;;;;;1.74;100.00;100428.03;5056733;28;20259;-80
2023/03/05 05:52:52;;;;;;;2.73;2.17;;;;;;;1.68;100.00;100433.94;5056602;28;20208;-81
2023/03/05 05:55:19;;;;;;;5.40;1.97;;;;;;;1.78;99.67;100437.53;5056733;28;20258;-80
2023/03/05 05:57:45;;;;;;;5.80;2.43;;;;;;;1.81;98.98;100447.91;5056653;28;20221;-80
2023/03/05 06:00:16;;;;;;;2.43;2.23;;;;;;;1.78;98.49;100477.03;5056349;28;20680;-80
2023/03/05 06:02:42;;;;;;;2.03;1.70;;;;;;;1.71;98.21;100476.88;5049470;28;20206;-79
2023/03/05 06:05:13;;;;;;;3.70;2.00;;;;;;;1.84;98.58;100475.38;5056199;28;20202;-80
2023/03/05 06:07:40;;;;;;;4.37;1.73;;;;;;;1.75;98.04;100478.66;5056164;28;20328;-79
2023/03/05 06:10:08;;;;;;;8.37;1.70;;;;;;;1.70;98.03;100480.28;5056110;28;20228;-80
2023/03/05 06:12:35;;;;;;;2.70;1.53;;;;;;;1.79;98.46;100475.31;5055941;28;20304;-80
2023/03/05 06:15:01;;;;;;;2.43;1.57;;;;;;;1.71;97.42;100490.63;5055985;28;20206;-80
2023/03/05 06:17:28;;;;;;;3.43;2.10;;;;;;;1.74;97.80;100475.22;5056347;28;20258;-81
2023/03/05 06:19:55;;;;;;;2.70;1.77;;;;;;;1.68;98.41;100480.25;5055850;28;20255;-79
2023/03/05 06:22:22;;;;;;;4.40;2.07;;;;;;;1.68;98.79;100469.09;5056232;28;20216;-80
2023/03/05 06:24:49;;;;;;;3.37;1.67;;;;;;;1.69;98.95;100464.00;5056538;28;20206;-80
2023/03/05 06:27:15;;;;;;;4.87;1.60;;;;;;;1.68;99.36;100454.53;5046538;28;20252;-81
2023/03/05 06:29:41;;;;;;;8.07;2.27;;;;;;;1.79;98.82;100444.44;5056261;28;20210;-81
2023/03/05 06:32:08;;;;;;;2.53;1.93;;;;;;;1.79;98.15;100452.16;5057070;28;20214;-81
2023/03/05 06:34:34;;;;;;;5.50;2.37;;;;;;;1.75;99.08;100456.38;5056424;28;20210;-80
2023/03/05 06:37:01;;;;;;;5.50;2.83;;;;;;;1.78;99.09;100446.16;5056157;28;20267;-78
2023/03/05 06:39:29;;;;;;;4.23;2.30;;;;;;;1.82;99.24;100441.03;5050906;28;20230;-80
2023/03/05 06:41:55;;;;;;;2.53;2.10;;;;;;;1.83;100.00;100435.06;5056195;28;20311;-79
2023/03/05 06:44:21;;;;;;;5.83;2.90;;;;;;;1.84;100.00;100413.63;5055893;28;20207;-79
2023/03/05 06:46:48;;;;;;;3.80;2.70;;;;;;;1.78;100.00;100396.34;5056471;28;20268;-79
2023/03/05 06:49:14;;;;;;;5.00;3.23;;;;;;;1.76;100.00;100368.06;5056204;28;20237;-80
2023/03/05 06:51:41;;;;;;;7.07;3.73;;;;;;;1.74;100.00;100345.69;5055854;28;20203;-81
2023/03/05 06:54:10;;;;;;;4.17;3.63;;;;;;;1.72;100.00;100322.50;5055823;28;20646;-80
2023/03/05 06:56:40;;;;;;;4.07;3.37;;;;;;;1.74;100.00;100318.25;5055346;28;20230;-80
2023/03/05 06:59:08;;;;;;;7.50;3.57;;;;;;;1.89;100.00;100311.63;5056210;28;20279;-80
2023/03/05 07:01:35;;;;;;;4.77;3.23;;;;;;;1.91;100.00;100310.78;5056409;28;20205;-81
2023/03/05 07:04:02;;;;;;;5.73;3.80;;;;;;;1.82;100.00;100309.78;5055838;28;20201;-79
2023/03/05 07:06:29;;;;;;;6.63;4.20;;;;;;;1.68;100.00;100299.28;5055870;28;20251;-81
2023/03/05 07:08:56;;;;;;;6.03;4.93;;;;;;;1.70;100.00;100277.88;5056383;28;20259;-79
2023/03/05 07:11:23;;;;;;;6.77;4.80;;;;;;;1.74;100.00;100283.94;5055220;28;20211;-81
2023/03/05 07:13:51;;;;;;;6.13;4.80;;;;;;;1.70;100.00;100264.16;5055733;28;20210;-80
2023/03/05 07:16:20;;;;;;;9.23;5.23;;;;;;;1.82;100.00;100268.63;5055449;28;20213;-81
2023/03/05 07:18:46;;;;;;;7.40;4.73;;;;;;;1.83;100.00;100262.63;5055622;28;20221;-81
2023/03/05 07:21:17;;;;;;;7.50;4.70;;;;;;;1.85;100.00;100266.94;5055932;28;20202;-81
2023/03/05 07:23:43;;;;;;;8.20;4.17;;;;;;;1.89;100.00;100265.28;5055057;28;20206;-81
2023/03/05 07:26:10;;;;;;;4.40;4.00;;;;;;;1.94;100.00;100272.22;5055024;28;20205;-80
2023/03/05 07:28:37;;;;;;;6.97;4.47;;;;;;;1.92;100.00;100280.75;5055212;28;20225;-79
2023/03/05 07:31:07;;;;;;;5.27;3.57;;;;;;;1.99;100.00;100272.28;5054890;28;20255;-80
2023/03/05 07:33:35;;;;;;;4.40;4.00;;;;;;;1.98;100.00;100276.56;5055388;28;20202;-80
2023/03/05 07:36:03;;;;;;;5.27;3.70;;;;;;;1.89;100.00;100273.00;5054648;28;20680;-80
2023/03/05 07:38:30;;;;;;;5.23;3.90;;;;;;;2.00;100.00;100266.28;5051992;28;20310;-80
2023/03/05 07:40:56;;;;;;;8.60;4.13;;;;;;;2.09;100.00;100265.56;5053356;28;20197;-79
2023/03/05 07:43:23;;;;;;;7.23;3.60;;;;;;;1.98;100.00;100278.25;5053601;28;20228;-79
2023/03/05 07:45:49;;;;;;;4.90;3.40;;;;;;;2.10;100.00;100278.44;5053537;28;20201;-79
2023/03/05 07:48:19;;;;;;;3.40;3.17;;;;;;;2.13;100.00;100293.06;5053343;28;20625;-81
2023/03/05 07:50:46;;;;;;;4.47;3.67;;;;;;;2.20;100.00;100300.03;5053159;28;20255;-82
2023/03/05 07:53:12;;;;;;;3.13;2.70;;;;;;;2.22;100.00;100310.31;5053162;28;20208;-80
2023/03/05 07:55:42;;;;;;;3.97;3.40;;;;;;;2.28;100.00;100333.56;5053075;28;20688;-81
2023/03/05 07:58:09;;;;;;;7.07;3.30;;;;;;;2.30;100.00;100350.81;5053427;28;20235;-79
2023/03/05 08:00:35;;;;;;;4.53;2.43;;;;;;;2.29;100.00;100366.22;5054179;28;20231;-79
2023/03/05 08:03:02;;;;;;;5.07;1.97;;;;;;;2.26;99.33;100402.22;5042283;28;20193;-80
2023/03/05 08:05:29;;;;;;;2.63;1.67;;;;;;;2.11;97.76;100431.22;5024630;28;20257;-80
2023/03/05 08:07:56;;;;;;;4.63;1.80;;;;;;;2.25;97.11;100454.59;5024793;28;20224;-82
2023/03/05 08:10:22;;;;;;;6.00;1.87;;;;;;;2.25;96.50;100455.44;5030933;28;20738;-81
2023/03/05 08:12:48;;;;;;;2.03;1.30;;;;;;;2.24;96.11;100481.16;5026187;28;20262;-81
2023/03/05 08:15:15;;;;;;;1.90;1.57;;;;;;;2.33;96.04;100484.75;5029855;28;20233;-81
2023/03/05 08:17:41;;;;;;;3.63;1.47;;;;;;;2.32;95.68;100498.50;5030293;28;20664;-81
2023/03/05 08:20:09;;;;;;;1.23;1.13;;;;;;;2.39;95.43;100508.03;5030703;28;20249;-80
2023/03/05 08:22:38;;;;;;;1.80;1.30;;;;;;;2.43;95.35;100508.09;5023802;28;20762;-81
2023/03/05 08:25:06;;;;;;;1.80;1.30;;;;;;;2.45;94.47;100516.72;5025105;28;20606;-80
2023/03/05 08:27:33;;;;;;;2.10;1.90;;;;;;;2.54;94.22;100543.50;5024686;28;20279;-79
2023/03/05 08:30:01;;;;;;;1.90;1.30;;;;;;;2.44;93.04;100563.91;5027748;28;20220;-80
2023/03/05 08:32:27;;;;;;;1.60;1.50;;;;;;;2.45;93.18;100563.09;5025884;28;20258;-81
2023/03/05 08:34:57;;;;;;;4.37;1.67;;;;;;;2.46;94.24;100557.97;5028524;28;20195;-80
2023/03/05 08:37:23;;;;;;;4.27;1.40;;;;;;;2.36;94.70;100556.94;5026238;28;20272;-80
2023/03/05 08:39:51;;;;;;;2.13;1.47;;;;;;;2.49;94.65;100546.84;5032904;28;20205;-80
2023/03/05 08:42:17;;;;;;;3.00;2.70;;;;;;;2.49;93.11;100562.28;5029733;28;20742;-80
2023/03/05 08:44:44;;;;;;;1.50;1.37;;;;;;;2.51;93.44;100576.06;5026213;28;20209;-80
2023/03/05 08:47:10;;;;;;;2.50;2.13;;;;;;;2.70;93.66;100575.50;5028342;28;20251;-80
2023/03/05 08:49:37;;;;;;;3.27;1.80;;;;;;;2.84;92.85;100577.44;5028316;28;20223;-80
2023/03/05 08:52:03;;;;;;;2.03;1.43;;;;;;;2.92;91.18;100601.63;5026832;28;20258;-81
2023/03/05 08:54:29;;;;;;;1.53;1.40;;;;;;;2.84;89.66;100635.00;5027954;28;20222;-79
2023/03/05 08:56:57;;;;;;;1.77;1.40;;;;;;;2.83;88.61;100669.34;5021489;28;20207;-82
2023/03/05 08:59:23;;;;;;;3.17;1.40;;;;;;;2.77;88.98;100687.28;5017942;28;20601;-83
2023/03/05 09:01:50;;;;;;;1.97;1.03;;;;;;;2.61;88.25;100693.91;5019165;28;20211;-81
2023/03/05 09:04:16;;;;;;;2.40;1.60;;;;;;;2.79;88.83;100693.34;5036774;28;20736;-81
2023/03/05 09:06:42;;;;;;;4.20;2.17;;;;;;;2.84;89.49;100683.13;5039052;28;20206;-80
2023/03/05 09:09:09;;;;;;;2.77;2.33;;;;;;;2.80;88.56;100689.06;5046165;28;20231;-80
2023/03/05 09:11:37;;;;;;;3.40;1.47;;;;;;;2.76;88.17;100694.16;5058684;28;20209;-82
2023/03/05 09:14:05;;;;;;;3.57;2.40;;;;;;;2.75;88.07;100713.03;5058778;28;20209;-81
2023/03/05 09:16:32;;;;;;;2.87;1.70;;;;;;;2.95;88.61;100697.03;5058773;28;20686;-80
2023/03/05 09:18:59;;;;;;;3.60;2.27;;;;;;;2.98;88.88;100679.91;5059282;28;20289;-79
2023/03/05 09:21:26;;;;;;;2.90;1.70;;;;;;;2.83;89.29;100679.66;5033900;28;20209;-82
2023/03/05 09:23:52;;;;;;;5.53;1.83;;;;;;;2.92;89.27;100676.38;5018844;28;20587;-82
2023/03/05 09:26:19;;;;;;;2.90;1.33;;;;;;;2.98;88.82;100672.19;5019208;28;20713;-81
2023/03/05 09:28:46;;;;;;;2.17;1.97;;;;;;;3.07;88.38;100671.47;5018747;28;20235;-81
2023/03/05 09:31:14;;;;;;;3.33;1.53;;;;;;;2.97;88.14;100677.31;5018975;28;20218;-80
2023/03/05 09:33:41;;;;;;;3.83;1.67;;;;;;;2.77;87.28;100695.03;5019007;28;20207;-81
2023/03/05 09:36:17;;;;;;;1.50;1.10;;;;;;;2.82;87.20;100701.13;5018430;28;20207;-81
2023/03/05 09:38:44;;;;;;;2.37;1.40;;;;;;;2.85;86.81;100708.06;5024012;28;20215;-81
2023/03/05 09:41:17;;;;;;;2.73;1.23;;;;;;;2.95;87.12;100709.94;5052993;28;20202;-80
2023/03/05 09:43:54;;;;;;;2.97;1.87;;;;;;;3.11;88.29;100700.72;5058877;28;20213;-82
2023/03/05 09:46:32;;;;;;;2.93;1.60;;;;;;;2.98;89.11;100673.91;5058491;28;20209;-81
2023/03/05 09:49:10;;;;;;;2.87;1.60;;;;;;;2.75;90.44;100658.06;5058005;28;20240;-82
2023/03/05 09:51:40;;;;;;;4.30;1.77;;;;;;;2.62;91.59;100617.44;5058447;28;20205;-83
2023/03/05 09:54:13;;;;;;;5.10;4.43;;;;;;;2.74;92.80;100569.56;5057937;28;20213;-82
2023/03/05 09:56:42;;;;;;;5.50;2.10;;;;;;;2.79;92.41;100556.72;5058307;28;20220;-80
2023/03/05 09:59:20;;;;;;;3.43;2.33;;;;;;;2.81;91.14;100573.06;5058562;28;20226;-82
2023/03/05 10:01:50;;;;;;;8.00;5.47;;;;;;;3.04;91.09;100585.47;5058594;28;20690;-81
2023/03/05 10:04:20;;;;;;;5.40;2.13;;;;;;;3.18;89.15;100601.97;5057777;28;20207;-80
2023/03/05 10:06:52;;;;;;;5.33;2.40;;;;;;;3.30;89.47;100596.97;5058045;28;20209;-80
2023/03/05 10:09:37;;;;;;;2.50;2.30;;;;;;;3.14;87.45;100632.00;5055371;28;20238;-81
2023/03/05 10:12:07;;;;;;;2.10;2.00;;;;;;;3.23;87.54;100651.94;5046585;28;20269;-81
2023/03/05 10:14:38;;;;;;;4.80;2.00;;;;;;;3.40;87.11;100661.63;5057710;28;20257;-82
2023/03/05 10:17:24;;;;;;;3.60;1.73;;;;;;;3.04;87.84;100671.41;5059068;28;20256;-81
2023/03/05 10:20:13;;;;;;;3.97;1.97;;;;;;;3.01;89.47;100630.09;5058223;28;20672;-82
2023/03/05 10:23:04;;;;;;;2.20;1.43;;;;;;;2.72;91.33;100609.91;5058297;28;20677;-82
2023/03/05 10:25:49;;;;;;;4.33;2.90;;;;;;;2.63;94.27;100531.59;5058286;28;20216;-81
2023/03/05 10:28:18;;;;;;;4.50;3.17;;;;;;;2.85;94.48;100491.50;5058193;28;20295;-81
2023/03/05 10:31:17;;;;;;;4.10;3.27;;;;;;;2.80;93.86;100478.56;5057714;28;20240;-82
2023/03/05 10:33:59;;;;;;;5.93;2.10;;;;;;;3.06;93.21;100476.31;5044136;28;20685;-80
2023/03/05 10:36:53;;;;;;;3.03;1.40;;;;;;;2.91;91.89;100491.59;5058243;28;20594;-81
2023/03/05 10:39:51;;;;;;;3.67;1.93;;;;;;;2.78;93.13;100494.00;5056083;28;20274;-82
2023/03/05 10:42:27;;;;;;;1.70;1.60;;;;;;;2.90;92.34;100487.28;5058227;28;20202;-82
2023/03/05 10:44:56;;;;;;;4.63;1.60;;;;;;;3.14;91.53;100489.31;5058339;28;20258;-82
2023/03/05 10:47:44;;;;;;;2.47;2.15;;;;;;;3.37;90.91;100512.81;4742352;28;10001178;-82
2023/03/05 10:50:17;;;;;;;1.63;1.50;;;;;;;3.56;90.33;100532.78;5045818;28;20978;-81
2023/03/05 10:52:47;;;;;;;4.47;2.17;;;;;;;3.63;88.72;100563.81;5055255;28;20210;-82
2023/03/05 10:55:16;;;;;;;3.13;1.50;;;;;;;3.61;86.52;100604.22;5055644;28;20218;-81
2023/03/05 10:57:43;;;;;;;4.87;1.60;;;;;;;3.88;85.90;100627.78;5055907;28;20236;-81
2023/03/05 11:00:18;;;;;;;1.57;1.40;;;;;;;3.74;82.90;100687.00;5055976;28;20210;-81
2023/03/05 11:03:00;;;;;;;2.77;1.70;;;;;;;3.86;82.33;100722.44;5053487;28;20203;-80
2023/03/05 11:05:46;;;;;;;2.77;1.60;;;;;;;3.99;83.55;100723.50;5052837;28;20272;-79
2023/03/05 11:08:30;;;;;;;2.83;1.37;;;;;;;4.01;83.27;100744.19;5051158;28;20288;-79
2023/03/05 11:11:10;;;;;;;2.90;1.50;;;;;;;3.82;81.15;100763.72;5045477;28;20230;-79
2023/03/05 11:13:38;;;;;;;3.13;1.33;;;;;;;3.94;80.72;100800.91;5053516;28;20260;-80
2023/03/05 11:16:06;;;;;;;3.17;1.60;;;;;;;3.69;79.15;100825.50;5052775;28;20274;-79
2023/03/05 11:18:34;;;;;;;3.20;1.70;;;;;;;3.69;79.03;100851.31;5049974;28;20263;-80
2023/03/05 11:21:10;;;;;;;1.90;1.60;;;;;;;3.66;79.89;100856.41;5052017;28;20691;-79
2023/03/05 11:23:37;;;;;;;3.37;2.07;;;;;;;3.65;80.14;100853.81;5052551;28;20267;-79
2023/03/05 11:26:14;;;;;;;2.17;1.40;;;;;;;3.56;80.39;100850.25;5051823;28;20308;-80
2023/03/05 11:28:55;;;;;;;2.77;1.70;;;;;;;3.57;81.81;100820.16;5051855;28;20263;-80
2023/03/05 11:31:24;;;;;;;2.67;2.00;;;;;;;3.67;80.31;100808.25;5052203;28;20270;-80
2023/03/05 11:33:59;;;;;;;1.97;1.70;;;;;;;3.72;80.19;100811.75;5051836;28;20211;-81
2023/03/05 11:36:29;;;;;;;2.60;1.60;;;;;;;3.77;79.93;100812.72;5051693;28;20727;-79